createdAt,value
2019-05-10T00:01:50.717Z,13.33
2019-05-10T00:05:12.319Z,13.63
2019-05-10T00:08:33.835Z,12.80
2019-05-10T00:11:49.313Z,13.43
2019-05-10T00:14:54.680Z,13.83
2019-05-10T00:18:00.028Z,12.80
2019-05-10T00:21:03.933Z,12.80
2019-05-10T00:24:07.474Z,13.37
2019-05-10T00:27:11.014Z,13.37
2019-05-10T00:30:14.587Z,12.10
2019-05-10T00:33:18.078Z,12.23
2019-05-10T00:36:21.603Z,11.87
2019-05-10T00:39:25.175Z,11.77
2019-05-10T00:42:28.733Z,11.77
2019-05-10T00:45:32.315Z,11.40
2019-05-10T00:48:35.843Z,11.23
2019-05-10T00:51:39.327Z,11.70
2019-05-10T00:54:42.846Z,11.37
2019-05-10T00:57:46.404Z,10.93
2019-05-10T01:00:49.918Z,11.53
2019-05-10T01:03:53.496Z,11.17
2019-05-10T01:06:57.094Z,11.13
2019-05-10T01:10:00.634Z,11.07
2019-05-10T01:13:04.109Z,10.77
2019-05-10T01:16:07.652Z,10.77
2019-05-10T01:19:11.150Z,11.27
2019-05-10T01:22:14.684Z,11.00
2019-05-10T01:25:33.713Z,10.87
2019-05-10T01:28:23.488Z,10.10
2019-05-10T01:31:26.971Z,10.80
2019-05-10T01:34:30.490Z,10.30
2019-05-10T01:37:34.083Z,9.50
2019-05-10T01:40:37.564Z,10.23
2019-05-10T01:43:41.151Z,9.53
2019-05-10T01:46:44.607Z,9.37
2019-05-10T01:49:48.119Z,9.73
2019-05-10T01:52:51.670Z,9.33
2019-05-10T01:55:55.167Z,9.53
2019-05-10T01:58:58.664Z,10.07
2019-05-10T02:02:02.212Z,9.30
2019-05-10T02:05:05.898Z,8.80
2019-05-10T02:08:09.645Z,9.53
2019-05-10T02:11:13.110Z,9.33
2019-05-10T02:14:16.657Z,10.10
2019-05-10T02:17:20.210Z,9.03
2019-05-10T02:20:23.723Z,9.63
2019-05-10T02:23:27.179Z,8.70
2019-05-10T02:26:30.714Z,8.60
2019-05-10T02:29:34.238Z,9.13
2019-05-10T02:32:37.764Z,8.63
2019-05-10T02:35:41.286Z,9.00
2019-05-10T02:38:44.767Z,9.03
2019-05-10T02:41:48.322Z,8.33
2019-05-10T02:44:51.807Z,8.37
2019-05-10T02:47:55.352Z,8.90
2019-05-10T02:50:58.873Z,9.10
2019-05-10T02:54:02.733Z,8.80
2019-05-10T02:57:07.101Z,9.00
2019-05-10T03:00:10.770Z,9.43
2019-05-10T03:03:15.886Z,8.83
2019-05-10T03:06:19.574Z,9.67
2019-05-10T03:09:24.537Z,8.67
2019-05-10T03:12:28.082Z,9.13
2019-05-10T03:15:33.144Z,8.27
2019-05-10T03:18:37.228Z,8.90
2019-05-10T03:21:42.215Z,9.17
2019-05-10T03:24:45.746Z,9.20
2019-05-10T03:27:49.415Z,9.60
2019-05-10T03:30:52.995Z,9.43
2019-05-10T03:33:57.848Z,9.80
2019-05-10T03:37:01.738Z,9.10
2019-05-10T03:40:08.166Z,9.53
2019-05-10T03:43:11.701Z,9.37
2019-05-10T03:46:15.207Z,9.90
2019-05-10T03:49:18.762Z,9.83
2019-05-10T03:52:22.254Z,9.67
2019-05-10T03:55:25.802Z,9.07
2019-05-10T03:58:29.365Z,8.97
2019-05-10T04:01:32.864Z,9.83
2019-05-10T04:04:36.347Z,11.07
2019-05-10T04:07:39.948Z,11.70
2019-05-10T04:10:43.511Z,11.13
2019-05-10T04:13:46.990Z,11.10
2019-05-10T04:16:50.530Z,10.90
2019-05-10T04:19:54.061Z,10.20
2019-05-10T04:22:57.600Z,10.27
2019-05-10T04:26:01.159Z,9.97
2019-05-10T04:29:04.636Z,9.43
2019-05-10T04:32:08.175Z,10.47
2019-05-10T04:35:11.699Z,10.33
2019-05-10T04:38:15.232Z,9.47
2019-05-10T04:41:18.760Z,9.40
2019-05-10T04:44:22.251Z,9.77
2019-05-10T04:47:25.771Z,9.73
2019-05-10T04:50:29.321Z,9.97
2019-05-10T04:53:32.789Z,8.70
2019-05-10T04:56:36.338Z,8.33
2019-05-10T04:59:39.833Z,7.20
2019-05-10T05:02:43.425Z,7.30
2019-05-10T05:05:46.912Z,6.40
2019-05-10T05:08:50.468Z,5.55
2019-05-10T05:11:54.017Z,5.90
2019-05-10T05:14:57.741Z,5.53
2019-05-10T05:18:01.197Z,5.92
2019-05-10T05:21:04.749Z,6.12
2019-05-10T05:24:08.231Z,5.72
2019-05-10T05:27:11.795Z,5.90
2019-05-10T05:30:16.255Z,5.80
2019-05-10T05:33:19.771Z,4.87
2019-05-10T05:36:23.256Z,4.75
2019-05-10T05:39:26.830Z,4.20
2019-05-10T05:42:30.315Z,3.92
2019-05-10T05:45:35.412Z,4.10
2019-05-10T05:48:40.263Z,3.75
2019-05-10T05:51:44.110Z,3.90
2019-05-10T05:54:47.590Z,3.30
2019-05-10T05:57:51.111Z,3.80
2019-05-10T06:00:54.950Z,3.10
2019-05-10T06:04:00.170Z,3.37
2019-05-10T06:07:03.675Z,3.30
2019-05-10T06:10:10.167Z,3.30
2019-05-10T06:13:12.518Z,3.15
2019-05-10T06:16:16.054Z,3.40
2019-05-10T06:19:19.886Z,3.55
2019-05-10T06:22:24.731Z,3.65
2019-05-10T06:25:38.710Z,3.80
2019-05-10T06:28:57.550Z,3.47
2019-05-10T06:31:39.249Z,3.40
2019-05-10T06:34:43.168Z,3.42
2019-05-10T06:37:46.995Z,3.37
2019-05-10T06:40:50.878Z,3.17
2019-05-10T06:43:54.743Z,2.85
2019-05-10T06:47:02.192Z,2.98
2019-05-10T06:50:04.609Z,2.80
2019-05-10T06:53:10.897Z,2.70
2019-05-10T06:56:14.054Z,2.75
2019-05-10T06:59:19.338Z,2.40
2019-05-10T07:02:26.672Z,2.40
2019-05-10T07:05:28.937Z,2.72
2019-05-10T07:08:44.526Z,2.83
2019-05-10T07:11:37.943Z,2.90
2019-05-10T07:14:45.812Z,3.30
2019-05-10T07:17:47.505Z,3.62
2019-05-10T07:20:51.025Z,2.70
2019-05-10T07:23:54.864Z,3.10
2019-05-10T07:27:02.020Z,3.85
2019-05-10T07:30:06.636Z,3.72
2019-05-10T07:33:10.526Z,3.37
2019-05-10T07:36:15.592Z,3.80
2019-05-10T07:39:19.870Z,4.05
2019-05-10T07:42:23.772Z,4.05
2019-05-10T07:45:27.436Z,4.75
2019-05-10T07:48:31.694Z,4.87
2019-05-10T07:51:35.191Z,5.15
2019-05-10T07:54:45.122Z,5.03
2019-05-10T07:57:44.227Z,5.53
2019-05-10T08:00:48.094Z,6.08
2019-05-10T08:03:52.608Z,6.05
2019-05-10T08:06:56.641Z,6.30
2019-05-10T08:10:00.469Z,6.83
2019-05-10T08:13:04.395Z,6.70
2019-05-10T08:16:11.746Z,6.92
2019-05-10T08:19:13.796Z,5.87
2019-05-10T08:22:17.249Z,5.58
2019-05-10T08:25:22.988Z,6.42
2019-05-10T08:28:28.093Z,5.92
2019-05-10T08:31:40.528Z,5.87
2019-05-10T08:34:40.260Z,6.92
2019-05-10T08:37:44.372Z,7.95
2019-05-10T08:40:48.255Z,7.85
2019-05-10T08:43:52.551Z,8.10
2019-05-10T08:46:56.589Z,8.25
2019-05-10T08:50:18.015Z,7.20
2019-05-10T08:53:10.952Z,7.50
2019-05-10T08:56:13.685Z,6.10
2019-05-10T08:59:23.592Z,5.40
2019-05-10T09:02:28.924Z,5.13
2019-05-10T09:05:29.372Z,5.47
2019-05-10T09:08:34.698Z,5.10
2019-05-10T09:11:38.808Z,5.10
2019-05-10T09:14:42.757Z,4.73
2019-05-10T09:17:46.635Z,4.60
2019-05-10T09:20:51.445Z,4.33
2019-05-10T09:24:01.685Z,4.47
2019-05-10T09:27:01.826Z,4.60
2019-05-10T09:30:08.087Z,4.63
2019-05-10T09:33:14.470Z,5.00
2019-05-10T09:36:17.503Z,4.90
2019-05-10T09:39:24.772Z,4.50
2019-05-10T09:42:34.790Z,4.25
2019-05-10T09:45:32.631Z,4.37
2019-05-10T09:48:36.579Z,4.03
2019-05-10T09:51:42.282Z,3.90
2019-05-10T09:54:49.197Z,4.20
2019-05-10T09:57:51.809Z,4.25
2019-05-10T10:01:12.856Z,3.70
2019-05-10T10:04:02.299Z,3.30
2019-05-10T10:07:06.236Z,3.50
2019-05-10T10:10:12.705Z,3.60
2019-05-10T10:13:35.783Z,3.27
2019-05-10T10:16:21.452Z,3.35
2019-05-10T10:19:27.634Z,4.20
2019-05-10T10:22:30.849Z,4.45
2019-05-10T10:25:35.177Z,4.30
2019-05-10T10:28:40.199Z,3.97
2019-05-10T10:31:51.400Z,3.05
2019-05-10T10:34:54.085Z,3.20
2019-05-10T10:37:57.446Z,3.00
2019-05-10T10:41:00.567Z,3.30
2019-05-10T10:44:04.428Z,3.30
2019-05-10T10:47:08.316Z,2.87
2019-05-10T10:50:13.801Z,2.90
2019-05-10T10:53:18.017Z,3.20
2019-05-10T10:56:22.001Z,3.30
2019-05-10T10:59:26.290Z,3.20
2019-05-10T11:02:33.616Z,2.93
2019-05-10T11:05:35.657Z,2.60
2019-05-10T11:08:41.298Z,2.70
2019-05-10T11:11:45.020Z,2.40
2019-05-10T11:14:48.487Z,2.00
2019-05-10T11:17:52.349Z,2.58
2019-05-10T11:20:56.233Z,2.08
2019-05-10T11:24:01.386Z,2.60
2019-05-10T11:27:07.315Z,2.22
2019-05-10T11:30:12.361Z,2.50
2019-05-10T11:33:29.115Z,2.50
2019-05-10T11:36:21.825Z,2.80
2019-05-10T11:39:26.868Z,2.47
2019-05-10T11:42:31.165Z,2.30
2019-05-10T11:45:36.679Z,2.70
2019-05-10T11:48:42.230Z,3.02
2019-05-10T11:51:47.862Z,3.00
2019-05-10T11:54:51.726Z,2.50
2019-05-10T11:58:03.256Z,2.55
2019-05-10T12:01:12.842Z,2.83
2019-05-10T12:04:15.328Z,2.57
2019-05-10T12:07:13.059Z,2.95
2019-05-10T12:10:24.354Z,3.40
2019-05-10T12:13:24.941Z,3.00
2019-05-10T12:16:27.940Z,2.70
2019-05-10T12:19:36.738Z,3.00
2019-05-10T12:22:38.504Z,2.80
2019-05-10T12:25:59.256Z,3.00
2019-05-10T12:28:50.866Z,2.90
2019-05-10T12:31:56.942Z,2.97
2019-05-10T12:35:01.294Z,2.97
2019-05-10T12:38:04.569Z,3.40
2019-05-10T12:41:08.397Z,3.00
2019-05-10T12:44:12.299Z,3.07
2019-05-10T12:47:16.139Z,2.83
2019-05-10T12:50:20.422Z,2.97
2019-05-10T12:53:24.239Z,2.53
2019-05-10T12:56:28.121Z,2.70
2019-05-10T12:59:34.994Z,2.60
2019-05-10T13:02:37.480Z,2.80
2019-05-10T13:05:52.048Z,3.33
2019-05-10T13:08:46.811Z,3.83
2019-05-10T13:11:50.646Z,3.30
2019-05-10T13:14:54.544Z,3.67
2019-05-10T13:17:58.539Z,3.37
2019-05-10T13:21:02.094Z,4.23
2019-05-10T13:24:06.005Z,3.40
2019-05-10T13:27:10.048Z,2.57
2019-05-10T13:30:14.346Z,1.90
2019-05-10T13:33:28.509Z,2.00
2019-05-10T13:36:23.780Z,2.00
2019-05-10T13:39:27.796Z,2.20
2019-05-10T13:42:36.431Z,2.30
2019-05-10T13:45:39.444Z,2.20
2019-05-10T13:48:42.774Z,2.60
2019-05-10T13:51:46.721Z,2.30
2019-05-10T13:54:50.610Z,2.17
2019-05-10T13:57:54.383Z,2.37
2019-05-10T14:00:58.272Z,3.73
2019-05-10T14:04:03.522Z,3.80
2019-05-10T14:07:07.878Z,3.20
2019-05-10T14:10:17.994Z,3.40
2019-05-10T14:13:17.931Z,3.57
2019-05-10T14:16:22.558Z,2.80
2019-05-10T14:19:26.761Z,2.83
2019-05-10T14:22:30.667Z,2.63
2019-05-10T14:25:36.648Z,3.33
2019-05-10T14:28:40.036Z,3.10
2019-05-10T14:31:43.945Z,2.77
2019-05-10T14:34:47.914Z,3.13
2019-05-10T14:37:51.800Z,4.23
2019-05-10T14:40:55.640Z,6.27
2019-05-10T14:43:59.556Z,5.00
2019-05-10T14:47:03.442Z,3.17
2019-05-10T14:50:08.168Z,3.50
2019-05-10T14:53:12.026Z,3.50
2019-05-10T14:56:15.859Z,2.97
2019-05-10T14:59:19.385Z,2.90
2019-05-10T15:02:25.043Z,2.83
2019-05-10T15:05:28.785Z,3.10
2019-05-10T15:08:32.689Z,3.47
2019-05-10T15:11:36.832Z,3.50
2019-05-10T15:14:40.744Z,3.70
2019-05-10T15:17:44.584Z,4.03
2019-05-10T15:20:48.487Z,3.80
2019-05-10T15:23:55.345Z,3.90
2019-05-10T15:26:57.848Z,3.47
2019-05-10T15:30:05.172Z,4.17
2019-05-10T15:33:06.913Z,6.00
2019-05-10T15:36:10.802Z,5.80
2019-05-10T15:39:14.660Z,5.70
2019-05-10T15:42:21.817Z,4.83
2019-05-10T15:45:24.600Z,5.50
2019-05-10T15:48:28.499Z,5.60
2019-05-10T15:51:36.205Z,6.33
2019-05-10T15:54:37.956Z,7.47
2019-05-10T15:57:42.695Z,8.23
2019-05-10T16:00:46.612Z,6.60
2019-05-10T16:03:50.498Z,6.57
2019-05-10T16:06:54.357Z,7.17
2019-05-10T16:09:58.265Z,8.87
2019-05-10T16:13:02.141Z,9.37
2019-05-10T16:16:05.583Z,8.43
2019-05-10T16:19:12.970Z,7.57
2019-05-10T16:22:14.632Z,7.37
2019-05-10T16:25:18.475Z,7.13
2019-05-10T16:28:22.979Z,7.00
2019-05-10T16:31:27.001Z,6.80
2019-05-10T16:34:32.387Z,6.73
2019-05-10T16:37:36.004Z,6.67
2019-05-10T16:40:39.893Z,6.33
2019-05-10T16:43:43.334Z,6.37
2019-05-10T16:46:46.838Z,6.30
2019-05-10T16:49:53.466Z,6.73
2019-05-10T16:52:59.455Z,6.37
2019-05-10T16:56:00.978Z,6.37
2019-05-10T16:59:04.819Z,6.43
2019-05-10T17:02:11.839Z,6.30
2019-05-10T17:05:15.820Z,7.30
2019-05-10T17:08:19.508Z,6.90
2019-05-10T17:11:23.325Z,7.47
2019-05-10T17:14:27.228Z,8.00
2019-05-10T17:17:36.463Z,8.03
2019-05-10T17:20:36.252Z,8.53
2019-05-10T17:23:41.572Z,8.17
2019-05-10T17:26:45.223Z,8.10
2019-05-10T17:29:49.719Z,8.23
2019-05-10T17:32:57.929Z,8.80
2019-05-10T17:36:08.015Z,9.07
2019-05-10T17:39:05.967Z,9.53
2019-05-10T17:42:09.796Z,9.67
2019-05-10T17:45:13.908Z,8.93
2019-05-10T17:48:17.727Z,10.53
2019-05-10T17:51:21.613Z,10.97
2019-05-10T17:54:25.598Z,12.20
2019-05-10T17:57:29.655Z,12.97
2019-05-10T18:00:33.219Z,14.63
2019-05-10T18:03:36.718Z,16.20
2019-05-10T18:06:40.234Z,15.30
2019-05-10T18:09:43.738Z,17.30
2019-05-10T18:12:47.276Z,17.40
2019-05-10T18:15:50.819Z,17.17
2019-05-10T18:18:54.379Z,17.50
2019-05-10T18:22:00.732Z,16.60
2019-05-10T18:25:03.820Z,16.80
2019-05-10T18:28:07.704Z,17.13
2019-05-10T18:31:11.565Z,18.97
2019-05-10T18:34:15.114Z,18.03
2019-05-10T18:37:21.723Z,18.97
2019-05-10T18:40:25.294Z,18.53
2019-05-10T18:43:30.086Z,18.60
2019-05-10T18:46:33.929Z,18.43
2019-05-10T18:49:37.828Z,19.10
2019-05-10T18:52:41.707Z,19.27
2019-05-10T18:55:45.576Z,19.33
2019-05-10T18:58:49.467Z,20.90
2019-05-10T19:01:53.315Z,21.40
2019-05-10T19:04:57.244Z,22.73
2019-05-10T19:08:04.724Z,23.07
2019-05-10T19:11:06.673Z,23.53
2019-05-10T19:14:10.597Z,22.67
2019-05-10T19:17:14.471Z,21.87
2019-05-10T19:20:18.574Z,22.93
2019-05-10T19:23:22.513Z,23.47
2019-05-10T19:26:29.662Z,23.60
2019-05-10T19:29:31.539Z,22.77
2019-05-10T19:32:35.439Z,23.33
2019-05-10T19:35:39.410Z,23.90
2019-05-10T19:38:43.014Z,22.90
2019-05-10T19:41:46.673Z,25.23
2019-05-10T19:44:50.213Z,24.47
2019-05-10T19:47:55.684Z,25.00
2019-05-10T19:51:02.964Z,24.90
2019-05-10T19:54:04.809Z,24.47
2019-05-10T19:57:15.111Z,23.83
2019-05-10T20:00:13.778Z,23.40
2019-05-10T20:03:17.283Z,22.63
2019-05-10T20:06:20.825Z,23.00
2019-05-10T20:09:24.344Z,23.60
2019-05-10T20:12:27.848Z,24.07
2019-05-10T20:15:31.405Z,23.63
2019-05-10T20:18:34.872Z,21.90
2019-05-10T20:21:38.436Z,22.07
2019-05-10T20:24:41.939Z,22.03
2019-05-10T20:27:45.490Z,22.03
2019-05-10T20:30:49.049Z,22.30
2019-05-10T20:33:52.531Z,20.90
2019-05-10T20:36:56.104Z,21.43
2019-05-10T20:39:59.589Z,21.77
2019-05-10T20:43:03.151Z,22.37
2019-05-10T20:46:07.259Z,21.30
2019-05-10T20:49:10.893Z,20.90
2019-05-10T20:52:14.428Z,22.37
2019-05-10T20:55:17.983Z,22.93
2019-05-10T20:58:21.867Z,22.47
2019-05-10T21:01:25.723Z,23.13
2019-05-10T21:04:29.619Z,23.73
2019-05-10T21:07:33.467Z,23.77
2019-05-10T21:10:37.403Z,24.73
2019-05-10T21:13:40.903Z,24.97
2019-05-10T21:16:44.489Z,23.13
2019-05-10T21:19:48.040Z,23.93
2019-05-10T21:22:51.898Z,23.90
2019-05-10T21:25:55.740Z,25.50
2019-05-10T21:28:59.586Z,24.47
2019-05-10T21:32:03.568Z,23.43
2019-05-10T21:35:07.570Z,23.90
2019-05-10T21:38:11.439Z,22.90
2019-05-10T21:41:15.384Z,22.93
2019-05-10T21:44:19.369Z,22.03
2019-05-10T21:47:23.262Z,22.70
2019-05-10T21:50:27.116Z,21.93
2019-05-10T21:53:30.995Z,22.60
2019-05-10T21:56:35.932Z,21.37
2019-05-10T21:59:40.633Z,21.67
2019-05-10T22:02:44.726Z,22.90
2019-05-10T22:05:48.544Z,22.17
2019-05-10T22:08:52.451Z,21.77
2019-05-10T22:11:59.322Z,22.13
2019-05-10T22:15:01.558Z,22.13
2019-05-10T22:18:05.039Z,23.27
2019-05-10T22:21:08.601Z,22.80
2019-05-10T22:24:12.159Z,20.93
2019-05-10T22:27:15.719Z,22.83
2019-05-10T22:30:19.226Z,22.40
2019-05-10T22:33:22.785Z,22.73
2019-05-10T22:36:26.251Z,21.03
2019-05-10T22:39:29.792Z,21.57
2019-05-10T22:42:33.349Z,22.23
2019-05-10T22:45:37.234Z,21.97
2019-05-10T22:48:41.142Z,22.33
2019-05-10T22:51:44.744Z,20.70
2019-05-10T22:54:48.701Z,22.50
2019-05-10T22:57:52.601Z,21.97
2019-05-10T23:00:56.472Z,22.33
2019-05-10T23:03:59.987Z,22.03
2019-05-10T23:07:03.443Z,21.30
2019-05-10T23:10:07.025Z,21.40
2019-05-10T23:13:10.522Z,20.60
2019-05-10T23:16:14.447Z,21.13
2019-05-10T23:19:17.996Z,21.57
2019-05-10T23:22:21.898Z,20.57
2019-05-10T23:25:25.747Z,20.43
2019-05-10T23:28:29.694Z,22.00
2019-05-10T23:31:35.623Z,21.33
2019-05-10T23:34:39.065Z,22.13
2019-05-10T23:37:42.927Z,22.87
2019-05-10T23:40:46.769Z,24.00
2019-05-10T23:43:50.609Z,22.53
2019-05-10T23:46:54.487Z,23.07
2019-05-10T23:49:58.325Z,22.43
2019-05-10T23:53:02.250Z,21.70
2019-05-10T23:56:06.128Z,22.17
2019-05-10T23:59:10.008Z,22.73
